sensor_id;sensor_type;location;lat;lon;timestamp;temperature;humidity
48752;DHT22;34544;48.836;9.174;2024-01-27T00:01:22;2.20;99.90
48752;DHT22;34544;48.836;9.174;2024-01-27T00:03:48;2.10;99.90
48752;DHT22;34544;48.836;9.174;2024-01-27T00:06:13;2.10;99.90
48752;DHT22;34544;48.836;9.174;2024-01-27T00:08:39;2.10;99.90
48752;DHT22;34544;48.836;9.174;2024-01-27T00:11:05;2.10;99.90
48752;DHT22;34544;48.836;9.174;2024-01-27T00:13:31;2.10;99.90
48752;DHT22;34544;48.836;9.174;2024-01-27T00:15:57;2.00;99.90
48752;DHT22;34544;48.836;9.174;2024-01-27T00:18:22;2.00;99.90
48752;DHT22;34544;48.836;9.174;2024-01-27T00:20:49;2.00;99.90
48752;DHT22;34544;48.836;9.174;2024-01-27T00:23:15;2.00;99.90
48752;DHT22;34544;48.836;9.174;2024-01-27T00:25:40;1.90;99.90
48752;DHT22;34544;48.836;9.174;2024-01-27T00:28:06;1.90;99.90
48752;DHT22;34544;48.836;9.174;2024-01-27T00:30:32;1.90;99.90
48752;DHT22;34544;48.836;9.174;2024-01-27T00:32:58;1.90;99.90
48752;DHT22;34544;48.836;9.174;2024-01-27T00:35:23;1.90;99.90
48752;DHT22;34544;48.836;9.174;2024-01-27T00:37:49;1.90;99.90
48752;DHT22;34544;48.836;9.174;2024-01-27T00:40:15;1.90;99.90
48752;DHT22;34544;48.836;9.174;2024-01-27T00:42:41;1.90;99.90
48752;DHT22;34544;48.836;9.174;2024-01-27T00:45:07;2.00;99.90
48752;DHT22;34544;48.836;9.174;2024-01-27T00:47:33;1.90;99.90
48752;DHT22;34544;48.836;9.174;2024-01-27T00:50:00;1.90;99.90
48752;DHT22;34544;48.836;9.174;2024-01-27T00:52:25;1.90;99.90
48752;DHT22;34544;48.836;9.174;2024-01-27T00:54:51;1.80;99.90
48752;DHT22;34544;48.836;9.174;2024-01-27T00:57:17;1.80;99.90
48752;DHT22;34544;48.836;9.174;2024-01-27T00:59:42;1.70;99.90
48752;DHT22;34544;48.836;9.174;2024-01-27T01:02:08;1.70;99.90
48752;DHT22;34544;48.836;9.174;2024-01-27T01:04:34;1.70;99.90
48752;DHT22;34544;48.836;9.174;2024-01-27T01:07:00;1.60;99.90
48752;DHT22;34544;48.836;9.174;2024-01-27T01:09:26;1.60;99.90
48752;DHT22;34544;48.836;9.174;2024-01-27T01:11:51;1.50;99.90
48752;DHT22;34544;48.836;9.174;2024-01-27T01:14:17;1.50;99.90
48752;DHT22;34544;48.836;9.174;2024-01-27T01:16:43;1.40;99.90
48752;DHT22;34544;48.836;9.174;2024-01-27T01:19:09;1.40;99.90
48752;DHT22;34544;48.836;9.174;2024-01-27T01:21:35;1.40;99.90
48752;DHT22;34544;48.836;9.174;2024-01-27T01:24:00;1.40;99.90
48752;DHT22;34544;48.836;9.174;2024-01-27T01:26:27;1.30;99.90
48752;DHT22;34544;48.836;9.174;2024-01-27T01:28:52;1.30;99.90
48752;DHT22;34544;48.836;9.174;2024-01-27T01:31:18;1.30;99.90
48752;DHT22;34544;48.836;9.174;2024-01-27T01:33:44;1.30;99.90
48752;DHT22;34544;48.836;9.174;2024-01-27T01:36:10;1.20;99.90
48752;DHT22;34544;48.836;9.174;2024-01-27T01:38:36;1.20;99.90
48752;DHT22;34544;48.836;9.174;2024-01-27T01:41:01;1.20;99.90
48752;DHT22;34544;48.836;9.174;2024-01-27T01:43:27;1.20;99.90
48752;DHT22;34544;48.836;9.174;2024-01-27T01:45:53;1.20;99.90
48752;DHT22;34544;48.836;9.174;2024-01-27T01:48:22;1.20;99.90
48752;DHT22;34544;48.836;9.174;2024-01-27T01:50:49;1.20;99.90
48752;DHT22;34544;48.836;9.174;2024-01-27T01:53:15;1.20;99.90
48752;DHT22;34544;48.836;9.174;2024-01-27T01:55:41;1.10;99.90
48752;DHT22;34544;48.836;9.174;2024-01-27T01:58:07;1.10;99.90
48752;DHT22;34544;48.836;9.174;2024-01-27T02:00:33;1.10;99.90
48752;DHT22;34544;48.836;9.174;2024-01-27T02:02:59;1.20;99.90
48752;DHT22;34544;48.836;9.174;2024-01-27T02:05:24;1.10;99.90
48752;DHT22;34544;48.836;9.174;2024-01-27T02:07:50;1.10;99.90
48752;DHT22;34544;48.836;9.174;2024-01-27T02:10:17;1.10;99.90
48752;DHT22;34544;48.836;9.174;2024-01-27T02:12:44;1.10;99.90
48752;DHT22;34544;48.836;9.174;2024-01-27T02:15:10;1.10;99.90
48752;DHT22;34544;48.836;9.174;2024-01-27T02:17:38;1.10;99.90
48752;DHT22;34544;48.836;9.174;2024-01-27T02:20:05;1.10;99.90
48752;DHT22;34544;48.836;9.174;2024-01-27T02:22:35;1.00;99.90
48752;DHT22;34544;48.836;9.174;2024-01-27T02:25:02;1.00;99.90
48752;DHT22;34544;48.836;9.174;2024-01-27T02:27:28;1.00;99.90
48752;DHT22;34544;48.836;9.174;2024-01-27T02:29:53;1.00;99.90
48752;DHT22;34544;48.836;9.174;2024-01-27T02:32:19;1.00;99.90
48752;DHT22;34544;48.836;9.174;2024-01-27T02:34:44;1.00;99.90
48752;DHT22;34544;48.836;9.174;2024-01-27T02:37:10;1.00;99.90
48752;DHT22;34544;48.836;9.174;2024-01-27T02:39:36;0.90;99.90
48752;DHT22;34544;48.836;9.174;2024-01-27T02:42:02;0.90;99.90
48752;DHT22;34544;48.836;9.174;2024-01-27T02:44:27;0.90;99.90
48752;DHT22;34544;48.836;9.174;2024-01-27T02:46:53;0.90;99.90
48752;DHT22;34544;48.836;9.174;2024-01-27T02:49:18;0.80;99.90
48752;DHT22;34544;48.836;9.174;2024-01-27T02:51:44;0.80;99.90
48752;DHT22;34544;48.836;9.174;2024-01-27T02:54:10;0.80;99.90
48752;DHT22;34544;48.836;9.174;2024-01-27T02:56:35;0.80;99.90
48752;DHT22;34544;48.836;9.174;2024-01-27T02:59:01;0.80;99.90
48752;DHT22;34544;48.836;9.174;2024-01-27T03:01:27;0.70;99.90
48752;DHT22;34544;48.836;9.174;2024-01-27T03:03:53;0.70;99.90
48752;DHT22;34544;48.836;9.174;2024-01-27T03:06:18;0.70;99.90
48752;DHT22;34544;48.836;9.174;2024-01-27T03:08:44;0.70;99.90
48752;DHT22;34544;48.836;9.174;2024-01-27T03:11:09;0.60;99.90
48752;DHT22;34544;48.836;9.174;2024-01-27T03:13:36;0.60;99.90
48752;DHT22;34544;48.836;9.174;2024-01-27T03:16:02;0.60;99.90
48752;DHT22;34544;48.836;9.174;2024-01-27T03:18:27;0.60;99.90
48752;DHT22;34544;48.836;9.174;2024-01-27T03:20:53;0.60;99.90
48752;DHT22;34544;48.836;9.174;2024-01-27T03:23:19;0.60;99.90
48752;DHT22;34544;48.836;9.174;2024-01-27T03:25:45;0.50;99.90
48752;DHT22;34544;48.836;9.174;2024-01-27T03:28:10;0.50;99.90
48752;DHT22;34544;48.836;9.174;2024-01-27T03:30:36;0.50;99.90
48752;DHT22;34544;48.836;9.174;2024-01-27T03:33:02;0.50;99.90
48752;DHT22;34544;48.836;9.174;2024-01-27T03:35:28;0.50;99.90
48752;DHT22;34544;48.836;9.174;2024-01-27T03:37:54;0.50;99.90
48752;DHT22;34544;48.836;9.174;2024-01-27T03:40:19;0.50;99.90
48752;DHT22;34544;48.836;9.174;2024-01-27T03:42:45;0.50;99.90
48752;DHT22;34544;48.836;9.174;2024-01-27T03:45:11;0.50;99.90
48752;DHT22;34544;48.836;9.174;2024-01-27T03:47:36;0.50;99.90
48752;DHT22;34544;48.836;9.174;2024-01-27T03:50:02;0.50;99.90
48752;DHT22;34544;48.836;9.174;2024-01-27T03:52:28;0.50;99.90
48752;DHT22;34544;48.836;9.174;2024-01-27T03:54:54;0.50;99.90
48752;DHT22;34544;48.836;9.174;2024-01-27T03:57:20;0.60;99.90
48752;DHT22;34544;48.836;9.174;2024-01-27T03:59:46;0.60;99.90
48752;DHT22;34544;48.836;9.174;2024-01-27T04:02:12;0.70;99.90
48752;DHT22;34544;48.836;9.174;2024-01-27T04:04:38;0.70;99.90
48752;DHT22;34544;48.836;9.174;2024-01-27T04:07:04;0.70;99.90
48752;DHT22;34544;48.836;9.174;2024-01-27T04:09:30;0.70;99.90
48752;DHT22;34544;48.836;9.174;2024-01-27T04:11:55;0.70;99.90
48752;DHT22;34544;48.836;9.174;2024-01-27T04:14:21;0.70;99.90
48752;DHT22;34544;48.836;9.174;2024-01-27T04:16:47;0.70;99.90
48752;DHT22;34544;48.836;9.174;2024-01-27T04:19:12;0.80;99.90
48752;DHT22;34544;48.836;9.174;2024-01-27T04:21:38;0.70;99.90
48752;DHT22;34544;48.836;9.174;2024-01-27T04:24:04;0.70;99.90
48752;DHT22;34544;48.836;9.174;2024-01-27T04:26:30;0.70;99.90
48752;DHT22;34544;48.836;9.174;2024-01-27T04:28:56;0.60;99.90
48752;DHT22;34544;48.836;9.174;2024-01-27T04:31:22;0.60;99.90
48752;DHT22;34544;48.836;9.174;2024-01-27T04:33:48;0.50;99.90
48752;DHT22;34544;48.836;9.174;2024-01-27T04:36:13;0.50;99.90
48752;DHT22;34544;48.836;9.174;2024-01-27T04:38:39;0.50;99.90
48752;DHT22;34544;48.836;9.174;2024-01-27T04:41:05;0.50;99.90
48752;DHT22;34544;48.836;9.174;2024-01-27T04:43:31;0.50;99.90
48752;DHT22;34544;48.836;9.174;2024-01-27T04:45:57;0.50;99.90
48752;DHT22;34544;48.836;9.174;2024-01-27T04:48:22;0.40;99.90
48752;DHT22;34544;48.836;9.174;2024-01-27T04:50:48;0.40;99.90
48752;DHT22;34544;48.836;9.174;2024-01-27T04:53:13;0.40;99.90
48752;DHT22;34544;48.836;9.174;2024-01-27T04:55:39;0.30;99.90
48752;DHT22;34544;48.836;9.174;2024-01-27T04:58:07;0.30;99.90
48752;DHT22;34544;48.836;9.174;2024-01-27T05:00:32;0.30;99.90
48752;DHT22;34544;48.836;9.174;2024-01-27T05:02:58;0.20;99.90
48752;DHT22;34544;48.836;9.174;2024-01-27T05:05:29;0.20;99.90
48752;DHT22;34544;48.836;9.174;2024-01-27T05:07:55;0.10;99.90
48752;DHT22;34544;48.836;9.174;2024-01-27T05:10:20;0.10;99.90
48752;DHT22;34544;48.836;9.174;2024-01-27T05:12:47;0.10;99.90
48752;DHT22;34544;48.836;9.174;2024-01-27T05:15:13;0.10;99.90
48752;DHT22;34544;48.836;9.174;2024-01-27T05:17:39;0.10;99.90
48752;DHT22;34544;48.836;9.174;2024-01-27T05:20:06;0.10;99.90
48752;DHT22;34544;48.836;9.174;2024-01-27T05:22:32;0.00;99.90
48752;DHT22;34544;48.836;9.174;2024-01-27T05:24:58;0.00;99.90
48752;DHT22;34544;48.836;9.174;2024-01-27T05:27:24;0.00;99.90
48752;DHT22;34544;48.836;9.174;2024-01-27T05:29:50;0.00;99.90
48752;DHT22;34544;48.836;9.174;2024-01-27T05:32:15;0.00;99.90
48752;DHT22;34544;48.836;9.174;2024-01-27T05:34:41;0.00;99.90
48752;DHT22;34544;48.836;9.174;2024-01-27T05:37:07;0.00;99.90
48752;DHT22;34544;48.836;9.174;2024-01-27T05:39:33;0.00;99.90
48752;DHT22;34544;48.836;9.174;2024-01-27T05:41:59;0.00;99.90
48752;DHT22;34544;48.836;9.174;2024-01-27T05:44:25;-0.10;99.90
48752;DHT22;34544;48.836;9.174;2024-01-27T05:46:50;-0.10;99.90
48752;DHT22;34544;48.836;9.174;2024-01-27T05:49:16;-0.10;99.90
48752;DHT22;34544;48.836;9.174;2024-01-27T05:51:42;-0.10;99.90
48752;DHT22;34544;48.836;9.174;2024-01-27T05:54:08;-0.10;99.90
48752;DHT22;34544;48.836;9.174;2024-01-27T05:56:35;-0.20;99.90
48752;DHT22;34544;48.836;9.174;2024-01-27T05:59:02;-0.20;99.90
48752;DHT22;34544;48.836;9.174;2024-01-27T06:01:28;-0.20;99.90
48752;DHT22;34544;48.836;9.174;2024-01-27T06:03:54;-0.20;99.90
48752;DHT22;34544;48.836;9.174;2024-01-27T06:06:19;-0.20;99.90
48752;DHT22;34544;48.836;9.174;2024-01-27T06:08:45;-0.30;99.90
48752;DHT22;34544;48.836;9.174;2024-01-27T06:11:11;-0.30;99.90
48752;DHT22;34544;48.836;9.174;2024-01-27T06:13:37;-0.30;99.90
48752;DHT22;34544;48.836;9.174;2024-01-27T06:16:09;-0.30;99.90
48752;DHT22;34544;48.836;9.174;2024-01-27T06:18:35;-0.30;99.90
48752;DHT22;34544;48.836;9.174;2024-01-27T06:21:02;-0.30;99.90
48752;DHT22;34544;48.836;9.174;2024-01-27T06:23:28;-0.30;99.90
48752;DHT22;34544;48.836;9.174;2024-01-27T06:25:54;-0.40;99.90
48752;DHT22;34544;48.836;9.174;2024-01-27T06:28:20;-0.40;99.90
48752;DHT22;34544;48.836;9.174;2024-01-27T06:30:45;-0.40;99.90
48752;DHT22;34544;48.836;9.174;2024-01-27T06:33:11;-0.40;99.90
48752;DHT22;34544;48.836;9.174;2024-01-27T06:35:37;-0.30;99.90
48752;DHT22;34544;48.836;9.174;2024-01-27T06:38:03;-0.40;99.90
48752;DHT22;34544;48.836;9.174;2024-01-27T06:40:28;-0.40;99.90
48752;DHT22;34544;48.836;9.174;2024-01-27T06:42:54;-0.40;99.90
48752;DHT22;34544;48.836;9.174;2024-01-27T06:45:19;-0.40;99.90
48752;DHT22;34544;48.836;9.174;2024-01-27T06:47:45;-0.40;99.90
48752;DHT22;34544;48.836;9.174;2024-01-27T06:50:11;-0.40;99.90
48752;DHT22;34544;48.836;9.174;2024-01-27T06:52:37;-0.40;99.90
48752;DHT22;34544;48.836;9.174;2024-01-27T06:55:03;-0.50;99.90
48752;DHT22;34544;48.836;9.174;2024-01-27T06:57:28;-0.50;99.90
48752;DHT22;34544;48.836;9.174;2024-01-27T06:59:54;-0.50;99.90
48752;DHT22;34544;48.836;9.174;2024-01-27T07:02:24;-0.50;99.90
48752;DHT22;34544;48.836;9.174;2024-01-27T07:04:51;-0.50;99.90
48752;DHT22;34544;48.836;9.174;2024-01-27T07:07:18;-0.40;99.90
48752;DHT22;34544;48.836;9.174;2024-01-27T07:09:44;-0.40;99.90
48752;DHT22;34544;48.836;9.174;2024-01-27T07:12:09;-0.40;99.90
48752;DHT22;34544;48.836;9.174;2024-01-27T07:14:35;-0.40;99.90
48752;DHT22;34544;48.836;9.174;2024-01-27T07:17:03;-0.40;99.90
48752;DHT22;34544;48.836;9.174;2024-01-27T07:19:29;-0.40;99.90
48752;DHT22;34544;48.836;9.174;2024-01-27T07:21:54;-0.40;99.90
48752;DHT22;34544;48.836;9.174;2024-01-27T07:24:20;-0.40;99.90
48752;DHT22;34544;48.836;9.174;2024-01-27T07:26:46;-0.40;99.90
48752;DHT22;34544;48.836;9.174;2024-01-27T07:29:12;-0.30;99.90
48752;DHT22;34544;48.836;9.174;2024-01-27T07:31:39;-0.30;99.90
48752;DHT22;34544;48.836;9.174;2024-01-27T07:34:05;-0.30;99.90
48752;DHT22;34544;48.836;9.174;2024-01-27T07:36:32;-0.30;99.90
48752;DHT22;34544;48.836;9.174;2024-01-27T07:38:58;-0.20;99.90
48752;DHT22;34544;48.836;9.174;2024-01-27T07:41:24;-0.20;99.90
48752;DHT22;34544;48.836;9.174;2024-01-27T07:43:50;-0.10;99.90
48752;DHT22;34544;48.836;9.174;2024-01-27T07:46:16;-0.10;99.90
48752;DHT22;34544;48.836;9.174;2024-01-27T07:48:42;-0.10;99.90
48752;DHT22;34544;48.836;9.174;2024-01-27T07:51:08;0.00;99.90
48752;DHT22;34544;48.836;9.174;2024-01-27T07:53:34;0.20;99.90
48752;DHT22;34544;48.836;9.174;2024-01-27T07:55:59;0.40;99.90
48752;DHT22;34544;48.836;9.174;2024-01-27T07:58:25;0.70;99.90
48752;DHT22;34544;48.836;9.174;2024-01-27T08:00:51;1.00;99.90
48752;DHT22;34544;48.836;9.174;2024-01-27T08:03:17;1.30;99.90
48752;DHT22;34544;48.836;9.174;2024-01-27T08:05:42;1.60;99.90
48752;DHT22;34544;48.836;9.174;2024-01-27T08:08:08;1.90;99.90
48752;DHT22;34544;48.836;9.174;2024-01-27T08:10:34;2.40;99.90
48752;DHT22;34544;48.836;9.174;2024-01-27T08:12:59;2.90;99.90
48752;DHT22;34544;48.836;9.174;2024-01-27T08:15:25;3.20;99.90
48752;DHT22;34544;48.836;9.174;2024-01-27T08:17:51;3.50;99.90
48752;DHT22;34544;48.836;9.174;2024-01-27T08:20:16;3.70;99.90
48752;DHT22;34544;48.836;9.174;2024-01-27T08:22:42;4.00;99.90
48752;DHT22;34544;48.836;9.174;2024-01-27T08:25:08;4.30;99.90
48752;DHT22;34544;48.836;9.174;2024-01-27T08:27:34;4.50;99.90
48752;DHT22;34544;48.836;9.174;2024-01-27T08:29:59;4.70;99.90
48752;DHT22;34544;48.836;9.174;2024-01-27T08:32:25;4.90;99.90
48752;DHT22;34544;48.836;9.174;2024-01-27T08:34:51;5.10;99.90
48752;DHT22;34544;48.836;9.174;2024-01-27T08:37:20;5.20;99.90
48752;DHT22;34544;48.836;9.174;2024-01-27T08:39:46;5.30;99.90
48752;DHT22;34544;48.836;9.174;2024-01-27T08:42:12;5.50;99.90
48752;DHT22;34544;48.836;9.174;2024-01-27T08:44:38;5.70;99.90
48752;DHT22;34544;48.836;9.174;2024-01-27T08:47:04;5.90;99.90
48752;DHT22;34544;48.836;9.174;2024-01-27T08:49:30;6.20;99.90
48752;DHT22;34544;48.836;9.174;2024-01-27T08:51:55;6.50;99.90
48752;DHT22;34544;48.836;9.174;2024-01-27T08:54:21;6.70;99.90
48752;DHT22;34544;48.836;9.174;2024-01-27T08:56:47;6.90;99.90
48752;DHT22;34544;48.836;9.174;2024-01-27T08:59:13;7.00;99.90
48752;DHT22;34544;48.836;9.174;2024-01-27T09:01:38;7.40;99.90
48752;DHT22;34544;48.836;9.174;2024-01-27T09:04:04;7.80;99.90
48752;DHT22;34544;48.836;9.174;2024-01-27T09:06:30;8.10;99.90
48752;DHT22;34544;48.836;9.174;2024-01-27T09:08:55;8.40;99.90
48752;DHT22;34544;48.836;9.174;2024-01-27T09:11:21;8.50;99.90
48752;DHT22;34544;48.836;9.174;2024-01-27T09:13:56;8.70;99.90
48752;DHT22;34544;48.836;9.174;2024-01-27T09:16:22;8.90;99.90
48752;DHT22;34544;48.836;9.174;2024-01-27T09:18:47;9.00;99.90
48752;DHT22;34544;48.836;9.174;2024-01-27T09:21:16;9.10;99.90
48752;DHT22;34544;48.836;9.174;2024-01-27T09:23:46;9.30;99.90
48752;DHT22;34544;48.836;9.174;2024-01-27T09:26:13;9.70;99.90
48752;DHT22;34544;48.836;9.174;2024-01-27T09:28:40;10.00;99.90
48752;DHT22;34544;48.836;9.174;2024-01-27T09:31:11;10.30;99.90
48752;DHT22;34544;48.836;9.174;2024-01-27T09:33:37;10.80;99.90
48752;DHT22;34544;48.836;9.174;2024-01-27T09:36:04;11.10;99.90
48752;DHT22;34544;48.836;9.174;2024-01-27T09:38:29;11.30;99.90
48752;DHT22;34544;48.836;9.174;2024-01-27T09:40:55;11.50;99.90
48752;DHT22;34544;48.836;9.174;2024-01-27T09:43:21;11.80;99.90
48752;DHT22;34544;48.836;9.174;2024-01-27T09:45:47;12.00;99.90
48752;DHT22;34544;48.836;9.174;2024-01-27T09:48:13;12.40;99.90
48752;DHT22;34544;48.836;9.174;2024-01-27T09:50:41;12.60;99.90
48752;DHT22;34544;48.836;9.174;2024-01-27T09:53:06;12.80;99.90
48752;DHT22;34544;48.836;9.174;2024-01-27T09:55:35;13.10;99.90
48752;DHT22;34544;48.836;9.174;2024-01-27T09:58:01;13.40;99.90
48752;DHT22;34544;48.836;9.174;2024-01-27T10:00:27;13.50;99.90
48752;DHT22;34544;48.836;9.174;2024-01-27T10:02:54;13.50;99.90
48752;DHT22;34544;48.836;9.174;2024-01-27T10:05:20;13.60;99.90
48752;DHT22;34544;48.836;9.174;2024-01-27T10:07:47;13.70;99.90
48752;DHT22;34544;48.836;9.174;2024-01-27T10:10:12;13.80;99.90
48752;DHT22;34544;48.836;9.174;2024-01-27T10:12:40;14.00;99.90
48752;DHT22;34544;48.836;9.174;2024-01-27T10:15:21;14.30;99.90
48752;DHT22;34544;48.836;9.174;2024-01-27T10:17:47;14.70;99.90
48752;DHT22;34544;48.836;9.174;2024-01-27T10:20:13;15.00;99.90
48752;DHT22;34544;48.836;9.174;2024-01-27T10:22:41;15.50;99.90
48752;DHT22;34544;48.836;9.174;2024-01-27T10:25:08;15.70;99.90
48752;DHT22;34544;48.836;9.174;2024-01-27T10:27:35;15.90;99.90
48752;DHT22;34544;48.836;9.174;2024-01-27T10:30:01;16.00;99.90
48752;DHT22;34544;48.836;9.174;2024-01-27T10:32:27;15.90;99.90
48752;DHT22;34544;48.836;9.174;2024-01-27T10:35:06;16.10;99.90
48752;DHT22;34544;48.836;9.174;2024-01-27T10:37:34;16.50;98.50
48752;DHT22;34544;48.836;9.174;2024-01-27T10:40:02;16.50;98.60
48752;DHT22;34544;48.836;9.174;2024-01-27T10:42:29;16.50;97.60
48752;DHT22;34544;48.836;9.174;2024-01-27T10:44:58;16.50;98.80
48752;DHT22;34544;48.836;9.174;2024-01-27T10:47:28;16.70;98.70
48752;DHT22;34544;48.836;9.174;2024-01-27T10:49:59;16.80;96.30
48752;DHT22;34544;48.836;9.174;2024-01-27T10:52:37;16.70;96.70
48752;DHT22;34544;48.836;9.174;2024-01-27T10:55:04;16.70;96.80
48752;DHT22;34544;48.836;9.174;2024-01-27T10:57:33;16.80;97.80
48752;DHT22;34544;48.836;9.174;2024-01-27T11:00:01;17.00;96.50
48752;DHT22;34544;48.836;9.174;2024-01-27T11:02:32;17.30;96.60
48752;DHT22;34544;48.836;9.174;2024-01-27T11:05:01;17.30;96.20
48752;DHT22;34544;48.836;9.174;2024-01-27T11:09:54;17.90;99.90
48752;DHT22;34544;48.836;9.174;2024-01-27T11:12:21;18.00;96.00
48752;DHT22;34544;48.836;9.174;2024-01-27T11:14:47;18.50;97.20
48752;DHT22;34544;48.836;9.174;2024-01-27T11:17:14;18.60;99.90
48752;DHT22;34544;48.836;9.174;2024-01-27T11:19:41;18.40;96.30
48752;DHT22;34544;48.836;9.174;2024-01-27T11:22:07;17.60;95.90
48752;DHT22;34544;48.836;9.174;2024-01-27T11:24:32;16.90;94.40
48752;DHT22;34544;48.836;9.174;2024-01-27T11:29:29;16.20;94.50
48752;DHT22;34544;48.836;9.174;2024-01-27T11:31:57;15.90;94.90
48752;DHT22;34544;48.836;9.174;2024-01-27T11:34:25;15.40;95.50
48752;DHT22;34544;48.836;9.174;2024-01-27T11:36:50;15.30;96.30
48752;DHT22;34544;48.836;9.174;2024-01-27T11:39:30;15.10;95.80
48752;DHT22;34544;48.836;9.174;2024-01-27T11:42:06;14.90;96.30
48752;DHT22;34544;48.836;9.174;2024-01-27T11:44:37;14.50;97.00
48752;DHT22;34544;48.836;9.174;2024-01-27T11:47:04;14.50;97.50
48752;DHT22;34544;48.836;9.174;2024-01-27T11:49:30;14.50;96.40
48752;DHT22;34544;48.836;9.174;2024-01-27T11:51:56;14.50;97.70
48752;DHT22;34544;48.836;9.174;2024-01-27T11:54:21;14.90;97.20
48752;DHT22;34544;48.836;9.174;2024-01-27T11:56:47;15.00;96.30
48752;DHT22;34544;48.836;9.174;2024-01-27T11:59:14;15.00;96.10
48752;DHT22;34544;48.836;9.174;2024-01-27T12:01:40;15.00;96.10
48752;DHT22;34544;48.836;9.174;2024-01-27T12:04:06;14.80;95.90
48752;DHT22;34544;48.836;9.174;2024-01-27T12:06:31;14.50;96.20
48752;DHT22;34544;48.836;9.174;2024-01-27T12:08:58;14.50;96.70
48752;DHT22;34544;48.836;9.174;2024-01-27T12:11:27;14.70;96.60
48752;DHT22;34544;48.836;9.174;2024-01-27T12:13:54;15.10;96.40
48752;DHT22;34544;48.836;9.174;2024-01-27T12:16:21;15.30;95.80
48752;DHT22;34544;48.836;9.174;2024-01-27T12:18:52;15.00;95.80
48752;DHT22;34544;48.836;9.174;2024-01-27T12:21:19;15.10;95.80
48752;DHT22;34544;48.836;9.174;2024-01-27T12:23:52;15.20;96.00
48752;DHT22;34544;48.836;9.174;2024-01-27T12:26:20;15.70;95.50
48752;DHT22;34544;48.836;9.174;2024-01-27T12:28:47;15.60;94.30
48752;DHT22;34544;48.836;9.174;2024-01-27T12:31:16;15.50;94.40
48752;DHT22;34544;48.836;9.174;2024-01-27T12:33:54;15.50;94.90
48752;DHT22;34544;48.836;9.174;2024-01-27T12:36:21;15.60;94.60
48752;DHT22;34544;48.836;9.174;2024-01-27T12:39:08;15.70;94.50
48752;DHT22;34544;48.836;9.174;2024-01-27T12:41:34;15.60;94.20
48752;DHT22;34544;48.836;9.174;2024-01-27T12:44:00;15.90;94.70
48752;DHT22;34544;48.836;9.174;2024-01-27T12:46:25;16.10;93.90
48752;DHT22;34544;48.836;9.174;2024-01-27T12:48:52;16.10;93.60
48752;DHT22;34544;48.836;9.174;2024-01-27T12:51:18;16.00;94.60
48752;DHT22;34544;48.836;9.174;2024-01-27T12:53:44;16.50;94.70
48752;DHT22;34544;48.836;9.174;2024-01-27T12:56:12;17.10;93.80
48752;DHT22;34544;48.836;9.174;2024-01-27T12:58:39;17.80;93.40
48752;DHT22;34544;48.836;9.174;2024-01-27T13:01:05;18.50;92.80
48752;DHT22;34544;48.836;9.174;2024-01-27T13:03:31;18.60;91.50
48752;DHT22;34544;48.836;9.174;2024-01-27T13:05:57;18.60;91.00
48752;DHT22;34544;48.836;9.174;2024-01-27T13:08:23;18.40;91.20
48752;DHT22;34544;48.836;9.174;2024-01-27T13:10:49;17.90;91.10
48752;DHT22;34544;48.836;9.174;2024-01-27T13:13:15;17.70;91.80
48752;DHT22;34544;48.836;9.174;2024-01-27T13:15:41;17.80;91.90
48752;DHT22;34544;48.836;9.174;2024-01-27T13:18:07;18.00;91.70
48752;DHT22;34544;48.836;9.174;2024-01-27T13:20:33;18.20;91.90
48752;DHT22;34544;48.836;9.174;2024-01-27T13:22:59;18.50;91.40
48752;DHT22;34544;48.836;9.174;2024-01-27T13:25:25;18.90;91.50
48752;DHT22;34544;48.836;9.174;2024-01-27T13:30:17;19.20;99.90
48752;DHT22;34544;48.836;9.174;2024-01-27T13:32:43;19.10;99.90
48752;DHT22;34544;48.836;9.174;2024-01-27T13:35:09;19.40;99.90
48752;DHT22;34544;48.836;9.174;2024-01-27T13:37:36;19.30;99.90
48752;DHT22;34544;48.836;9.174;2024-01-27T13:40:03;19.40;99.70
48752;DHT22;34544;48.836;9.174;2024-01-27T13:42:30;19.20;99.30
48752;DHT22;34544;48.836;9.174;2024-01-27T13:44:55;19.10;99.60
48752;DHT22;34544;48.836;9.174;2024-01-27T13:47:21;19.00;99.80
48752;DHT22;34544;48.836;9.174;2024-01-27T13:49:47;18.80;99.60
48752;DHT22;34544;48.836;9.174;2024-01-27T13:52:13;18.00;99.80
48752;DHT22;34544;48.836;9.174;2024-01-27T13:54:39;17.00;90.50
48752;DHT22;34544;48.836;9.174;2024-01-27T13:57:04;16.20;91.90
48752;DHT22;34544;48.836;9.174;2024-01-27T13:59:31;15.20;92.20
48752;DHT22;34544;48.836;9.174;2024-01-27T14:01:57;14.50;98.50
48752;DHT22;34544;48.836;9.174;2024-01-27T14:06:53;13.30;99.90
48752;DHT22;34544;48.836;9.174;2024-01-27T14:09:23;12.50;98.50
48752;DHT22;34544;48.836;9.174;2024-01-27T14:11:49;12.00;99.90
48752;DHT22;34544;48.836;9.174;2024-01-27T14:14:14;11.60;99.90
48752;DHT22;34544;48.836;9.174;2024-01-27T14:16:43;11.20;99.90
48752;DHT22;34544;48.836;9.174;2024-01-27T14:19:09;11.00;99.90
48752;DHT22;34544;48.836;9.174;2024-01-27T14:21:35;10.70;99.90
48752;DHT22;34544;48.836;9.174;2024-01-27T14:24:02;10.50;99.90
48752;DHT22;34544;48.836;9.174;2024-01-27T14:26:30;10.30;99.90
48752;DHT22;34544;48.836;9.174;2024-01-27T14:28:57;10.00;99.90
48752;DHT22;34544;48.836;9.174;2024-01-27T14:31:23;9.90;99.90
48752;DHT22;34544;48.836;9.174;2024-01-27T14:46:04;9.10;99.90
48752;DHT22;34544;48.836;9.174;2024-01-27T14:48:31;9.00;99.90
48752;DHT22;34544;48.836;9.174;2024-01-27T14:50:57;8.90;99.90
48752;DHT22;34544;48.836;9.174;2024-01-27T14:53:28;8.90;99.90
48752;DHT22;34544;48.836;9.174;2024-01-27T14:55:55;8.80;99.90
48752;DHT22;34544;48.836;9.174;2024-01-27T14:58:22;8.90;99.90
48752;DHT22;34544;48.836;9.174;2024-01-27T15:00:48;8.80;99.90
48752;DHT22;34544;48.836;9.174;2024-01-27T15:03:21;8.70;99.90
48752;DHT22;34544;48.836;9.174;2024-01-27T15:05:50;8.60;99.90
48752;DHT22;34544;48.836;9.174;2024-01-27T15:08:16;8.60;99.90
48752;DHT22;34544;48.836;9.174;2024-01-27T15:10:42;8.50;99.90
48752;DHT22;34544;48.836;9.174;2024-01-27T15:13:10;8.40;99.90
48752;DHT22;34544;48.836;9.174;2024-01-27T15:15:38;8.40;99.90
48752;DHT22;34544;48.836;9.174;2024-01-27T15:18:07;8.40;99.90
48752;DHT22;34544;48.836;9.174;2024-01-27T15:27:52;8.10;99.90
48752;DHT22;34544;48.836;9.174;2024-01-27T15:30:19;8.00;99.90
48752;DHT22;34544;48.836;9.174;2024-01-27T15:32:46;7.80;99.90
48752;DHT22;34544;48.836;9.174;2024-01-27T15:35:12;7.80;99.90
48752;DHT22;34544;48.836;9.174;2024-01-27T15:40:06;7.70;99.90
48752;DHT22;34544;48.836;9.174;2024-01-27T15:42:32;7.60;99.90
48752;DHT22;34544;48.836;9.174;2024-01-27T15:44:58;7.60;99.90
48752;DHT22;34544;48.836;9.174;2024-01-27T15:49:53;7.50;99.90
48752;DHT22;34544;48.836;9.174;2024-01-27T15:52:25;7.40;99.90
48752;DHT22;34544;48.836;9.174;2024-01-27T15:54:51;7.30;99.90
48752;DHT22;34544;48.836;9.174;2024-01-27T15:57:16;7.20;99.90
48752;DHT22;34544;48.836;9.174;2024-01-27T15:59:44;7.10;99.90
48752;DHT22;34544;48.836;9.174;2024-01-27T16:02:10;6.90;99.90
48752;DHT22;34544;48.836;9.174;2024-01-27T16:04:36;6.80;99.90
48752;DHT22;34544;48.836;9.174;2024-01-27T16:07:03;6.70;99.90
48752;DHT22;34544;48.836;9.174;2024-01-27T16:09:28;6.50;99.90